Csl Argosy — C6UZ9 — position and weather

sailwx.info

Track history (hours):
 
Tides and Currents Weather Stations Pressure Air Temp Water Temp Dewpoint Dewpoint Depression Visibility Wind Speed Wind Dir Waves Ship Positions

Csl Argosy

Last reported at 2017-Feb-21 09:18 UTC. Time now 2017-Feb-24 05:57 UTC.
Position N 35°50' W 023°23'.

Length 244 m; draft 11.9 m.

Type: Cargo ship. MMSI: 308299000.

Date/timePositionNaut miles runAvg speedWind from/ knotsBaromVisibWave heightAir tempDewpointWater temp
2017-Feb-21 09:18N 35°50' W 023°23'6 8.5
2017-Feb-21 08:33N 35°49' W 023°31'11 8.6
2017-Feb-21 07:16N 35°49' W 023°44'6 8.5
2017-Feb-21 06:33N 35°48' W 023°52'10 8.6
2017-Feb-21 05:25N 35°48' W 024°04'7 8.6
2017-Feb-21 04:33N 35°48' W 024°13'9 8.5
2017-Feb-21 03:33N 35°47' W 024°24'9 8.5
2017-Feb-21 02:33N 35°47' W 024°34'9 8.7
2017-Feb-21 01:33N 35°47' W 024°45'9 8.8
2017-Feb-21 00:33N 35°46' W 024°56'9 8.8
2017-Feb-20 23:33N 35°46' W 025°06'9 8.7
2017-Feb-20 22:33N 35°45' W 025°17'9 8.8
2017-Feb-20 21:33N 35°44' W 025°28'9 8.8
2017-Feb-20 20:31N 35°44' W 025°39'9 9.0
2017-Feb-20 19:32N 35°43' W 025°50'9 8.7
2017-Feb-20 18:32N 35°42' W 026°01'8 8.0
2017-Feb-20 17:32N 35°42' W 026°10'8 8.6
2017-Feb-20 16:33N 35°42' W 026°21'82 8.8
2017-Feb-20 07:18N 35°36' W 028°01'7 8.6
2017-Feb-20 06:29N 35°35' W 028°09'26 8.7
2017-Feb-20 03:29N 35°30' W 028°41'18 8.7
2017-Feb-20 01:25N 35°27' W 029°03'8 8.6
2017-Feb-20 00:30N 35°26' W 029°12'9 8.4
2017-Feb-19 23:26N 35°24' W 029°23'8 8.6
2017-Feb-19 22:33N 35°23' W 029°32'9 8.5
2017-Feb-19 21:33N 35°22' W 029°43'9 8.7
2017-Feb-19 20:33N 35°21' W 029°53'18 8.9
2017-Feb-19 18:32N 35°18' W 030°15'9 9.1
2017-Feb-19 17:32N 35°17' W 030°26'9 8.9
2017-Feb-19 16:33N 35°15' W 030°37'9 8.7
2017-Feb-19 15:31N 35°14' W 030°47'18 8.6
2017-Feb-19 13:29N 35°11' W 031°09'67 8.5
2017-Feb-19 05:31N 35°03' W 032°30'  
Track history (hours):
 
Tides and Currents Weather Stations Pressure Air Temp Water Temp Dewpoint Dewpoint Depression Visibility Wind Speed Wind Dir Waves Ship Positions

Csl Argosy

Last reported at 2017-Feb-21 09:18 UTC. Time now 2017-Feb-24 05:57 UTC.
Position N 35°50' W 023°23'.

Length 244 m; draft 11.9 m.

Type: Cargo ship. MMSI: 308299000.

Date/timePositionNaut miles runAvg speedWind from/ knotsBaromVisibWave heightAir tempDewpointWater temp
2017-Feb-21 09:18N 35°50' W 023°23'6 8.5
2017-Feb-21 08:33N 35°49' W 023°31'11 8.6
2017-Feb-21 07:16N 35°49' W 023°44'6 8.5
2017-Feb-21 06:33N 35°48' W 023°52'10 8.6
2017-Feb-21 05:25N 35°48' W 024°04'7 8.6
2017-Feb-21 04:33N 35°48' W 024°13'9 8.5
2017-Feb-21 03:33N 35°47' W 024°24'9 8.5
2017-Feb-21 02:33N 35°47' W 024°34'9 8.7
2017-Feb-21 01:33N 35°47' W 024°45'9 8.8
2017-Feb-21 00:33N 35°46' W 024°56'9 8.8
2017-Feb-20 23:33N 35°46' W 025°06'9 8.7
2017-Feb-20 22:33N 35°45' W 025°17'9 8.8
2017-Feb-20 21:33N 35°44' W 025°28'9 8.8
2017-Feb-20 20:31N 35°44' W 025°39'9 9.0
2017-Feb-20 19:32N 35°43' W 025°50'9 8.7
2017-Feb-20 18:32N 35°42' W 026°01'8 8.0
2017-Feb-20 17:32N 35°42' W 026°10'8 8.6
2017-Feb-20 16:33N 35°42' W 026°21'82 8.8
2017-Feb-20 07:18N 35°36' W 028°01'7 8.6
2017-Feb-20 06:29N 35°35' W 028°09'26 8.7
2017-Feb-20 03:29N 35°30' W 028°41'18 8.7
2017-Feb-20 01:25N 35°27' W 029°03'8 8.6
2017-Feb-20 00:30N 35°26' W 029°12'9 8.4
2017-Feb-19 23:26N 35°24' W 029°23'8 8.6
2017-Feb-19 22:33N 35°23' W 029°32'9 8.5
2017-Feb-19 21:33N 35°22' W 029°43'9 8.7
2017-Feb-19 20:33N 35°21' W 029°53'18 8.9
2017-Feb-19 18:32N 35°18' W 030°15'9 9.1
2017-Feb-19 17:32N 35°17' W 030°26'9 8.9
2017-Feb-19 16:33N 35°15' W 030°37'9 8.7
2017-Feb-19 15:31N 35°14' W 030°47'18 8.6
2017-Feb-19 13:29N 35°11' W 031°09'67 8.5
2017-Feb-19 05:31N 35°03' W 032°30'  

Dump ship's entire track history